createdAt,value
2018-12-30T00:01:28.240Z,102577.12
2018-12-30T00:04:08.749Z,102591.85
2018-12-30T00:06:40.211Z,102601.05
2018-12-30T00:09:13.449Z,102596.36
2018-12-30T00:11:44.448Z,102595.27
2018-12-30T00:14:15.282Z,102598.03
2018-12-30T00:16:52.245Z,102612.97
2018-12-30T00:19:22.824Z,102614.25
2018-12-30T00:21:54.464Z,102600.94
2018-12-30T00:24:26.988Z,102600.94
2018-12-30T00:26:57.497Z,102613.70
2018-12-30T00:29:31.704Z,102613.83
2018-12-30T00:32:04.311Z,102631.79
2018-12-30T00:34:42.043Z,102631.70
2018-12-30T00:37:13.042Z,102646.22
2018-12-30T00:39:49.566Z,102644.34
2018-12-30T00:42:21.603Z,102660.56
2018-12-30T00:44:52.229Z,102661.75
2018-12-30T00:47:24.666Z,102660.69
2018-12-30T00:49:55.170Z,102673.03
2018-12-30T00:52:45.957Z,102680.69
2018-12-30T00:55:07.574Z,102675.97
2018-12-30T00:57:38.022Z,102673.97
2018-12-30T01:00:08.641Z,102674.27
2018-12-30T01:02:39.472Z,102682.81
2018-12-30T01:05:14.902Z,102696.35
2018-12-30T01:07:45.472Z,102719.24
2018-12-30T01:10:15.874Z,102716.25
2018-12-30T01:12:55.765Z,102724.75
2018-12-30T01:15:24.223Z,102713.72
2018-12-30T01:17:55.299Z,102715.72
2018-12-30T01:20:32.822Z,102706.27
2018-12-30T01:23:03.491Z,102708.32
2018-12-30T01:25:33.885Z,102716.48
2018-12-30T01:28:10.409Z,102724.66
2018-12-30T01:30:40.795Z,102723.77
2018-12-30T01:33:11.073Z,102726.98
2018-12-30T01:35:46.015Z,102731.80
2018-12-30T01:38:16.643Z,102722.80
2018-12-30T01:40:46.974Z,102731.19
2018-12-30T01:43:21.390Z,102731.45
2018-12-30T01:45:51.745Z,102734.80
2018-12-30T01:48:22.379Z,102747.11
2018-12-30T01:50:56.547Z,102745.16
2018-12-30T01:53:28.849Z,102754.24
2018-12-30T01:55:59.235Z,102751.77
2018-12-30T01:58:31.744Z,102757.41
2018-12-30T02:01:02.589Z,102762.30
2018-12-30T02:03:36.064Z,102764.31
2018-12-30T02:06:06.407Z,102765.08
2018-12-30T02:08:37.001Z,102756.72
2018-12-30T02:11:16.841Z,102770.03
2018-12-30T02:13:46.794Z,102774.91
2018-12-30T02:16:17.338Z,102789.85
2018-12-30T02:18:51.850Z,102800.16
2018-12-30T02:21:22.233Z,102792.11
2018-12-30T02:23:52.812Z,102796.97
2018-12-30T02:26:31.845Z,102796.97
2018-12-30T02:29:03.678Z,102781.73
2018-12-30T02:31:36.068Z,102819.30
2018-12-30T02:34:09.958Z,102805.55
2018-12-30T02:36:43.341Z,102817.17
2018-12-30T02:39:13.962Z,102805.61
2018-12-30T02:41:46.902Z,102803.95
2018-12-30T02:44:18.204Z,102811.03
2018-12-30T02:46:48.580Z,102808.33
2018-12-30T02:49:22.446Z,102794.34
2018-12-30T02:51:53.940Z,102811.84
2018-12-30T02:54:24.607Z,102810.95
2018-12-30T02:56:57.972Z,102825.47
2018-12-30T02:59:28.584Z,102831.24
2018-12-30T03:01:59.335Z,102839.03
2018-12-30T03:04:32.864Z,102827.16
2018-12-30T03:07:03.272Z,102842.48
2018-12-30T03:09:35.107Z,102845.28
2018-12-30T03:12:06.073Z,102827.38
2018-12-30T03:14:36.398Z,102823.42
2018-12-30T03:17:06.783Z,102821.16
2018-12-30T03:19:45.783Z,102824.61
2018-12-30T03:22:16.157Z,102822.66
2018-12-30T03:24:47.980Z,102805.17
2018-12-30T03:27:21.008Z,102805.17
2018-12-30T03:29:54.801Z,102811.11
2018-12-30T03:32:25.200Z,102828.66
2018-12-30T03:34:58.930Z,102830.03
2018-12-30T03:37:29.299Z,102832.71
2018-12-30T03:39:59.946Z,102837.91
2018-12-30T03:42:31.925Z,102835.88
2018-12-30T03:45:02.601Z,102837.15
2018-12-30T03:47:43.365Z,102837.15
2018-12-30T03:50:13.741Z,102853.23
2018-12-30T03:52:44.061Z,102846.31
2018-12-30T03:55:15.141Z,102856.52
2018-12-30T03:57:48.830Z,102856.33
2018-12-30T04:00:19.208Z,102859.78
2018-12-30T04:02:50.579Z,102850.36
2018-12-30T04:05:21.051Z,102864.51
2018-12-30T04:07:51.313Z,102854.38
2018-12-30T04:10:21.948Z,102853.11
2018-12-30T04:12:52.277Z,102851.96
2018-12-30T04:15:24.172Z,102842.89
2018-12-30T04:17:54.827Z,102836.31
2018-12-30T04:20:38.722Z,102853.75
2018-12-30T04:23:06.280Z,102856.45
2018-12-30T04:25:36.936Z,102856.61
2018-12-30T04:28:30.222Z,102853.97
2018-12-30T04:30:46.762Z,102860.16
2018-12-30T04:33:17.451Z,102865.02
2018-12-30T04:35:49.265Z,102870.27
2018-12-30T04:38:19.618Z,102874.54
2018-12-30T04:40:49.918Z,102869.53
2018-12-30T04:43:21.666Z,102874.39
2018-12-30T04:45:52.183Z,102873.44
2018-12-30T04:48:22.510Z,102890.55
2018-12-30T04:50:57.217Z,102888.75
2018-12-30T04:53:29.136Z,102887.86
2018-12-30T04:56:00.895Z,102874.33
2018-12-30T04:58:33.069Z,102875.09
2018-12-30T05:01:05.612Z,102900.68
2018-12-30T05:03:37.174Z,102886.64
2018-12-30T05:06:07.508Z,102903.08
2018-12-30T05:08:37.942Z,102904.52
2018-12-30T05:11:08.514Z,102920.72
2018-12-30T05:13:40.381Z,102923.27
2018-12-30T05:16:10.973Z,102904.73
2018-12-30T05:18:41.647Z,102891.08
2018-12-30T05:21:18.547Z,102880.10
2018-12-30T05:23:50.479Z,102885.36
2018-12-30T05:26:20.830Z,102887.45
2018-12-30T05:28:54.272Z,102912.66
2018-12-30T05:31:25.468Z,102912.14
2018-12-30T05:33:55.902Z,102914.70
2018-12-30T05:36:26.228Z,102900.14
2018-12-30T05:38:56.536Z,102908.08
2018-12-30T05:41:30.676Z,102908.89
2018-12-30T05:44:00.740Z,102910.50
2018-12-30T05:46:32.476Z,102919.25
2018-12-30T05:49:02.795Z,102922.56
2018-12-30T05:51:33.146Z,102924.83
2018-12-30T05:54:03.864Z,102921.00
2018-12-30T05:56:35.411Z,102919.44
2018-12-30T05:59:05.687Z,102915.33
2018-12-30T06:01:35.975Z,102934.19
2018-12-30T06:04:15.719Z,102933.19
2018-12-30T06:06:46.066Z,102931.68
2018-12-30T06:09:16.393Z,102930.31
2018-12-30T06:11:46.738Z,102941.19
2018-12-30T06:14:17.343Z,102947.56
2018-12-30T06:16:47.694Z,102950.62
2018-12-30T06:19:19.288Z,102948.50
2018-12-30T06:21:52.786Z,102966.50
2018-12-30T06:24:21.895Z,102966.50
2018-12-30T06:26:52.182Z,102969.57
2018-12-30T06:29:24.467Z,102973.63
2018-12-30T06:31:54.953Z,102963.91
2018-12-30T06:34:25.637Z,102979.97
2018-12-30T06:37:01.173Z,102979.97
2018-12-30T06:39:33.358Z,102976.10
2018-12-30T06:42:03.722Z,102987.34
2018-12-30T06:44:37.042Z,102983.89
2018-12-30T06:47:08.934Z,102992.83
2018-12-30T06:49:39.227Z,102998.87
2018-12-30T06:52:09.625Z,102990.50
2018-12-30T06:54:43.530Z,103002.95
2018-12-30T06:57:13.851Z,102996.50
2018-12-30T06:59:44.526Z,102998.50
2018-12-30T07:02:16.195Z,102998.50
2018-12-30T07:04:49.143Z,103022.45
2018-12-30T07:07:19.492Z,103019.11
2018-12-30T07:09:50.160Z,103019.97
2018-12-30T07:12:20.753Z,103017.38
2018-12-30T07:15:02.391Z,103022.77
2018-12-30T07:17:28.116Z,103031.86
2018-12-30T07:19:58.633Z,103021.94
2018-12-30T07:22:32.910Z,103019.66
2018-12-30T07:25:03.153Z,103013.80
2018-12-30T07:27:33.737Z,103018.94
2018-12-30T07:30:23.390Z,103015.52
2018-12-30T07:32:45.842Z,103029.03
2018-12-30T07:35:19.420Z,103015.87
2018-12-30T07:37:57.170Z,103024.62
2018-12-30T07:40:27.487Z,103009.19
2018-12-30T07:42:57.775Z,103015.94
2018-12-30T07:45:30.034Z,103018.84
2018-12-30T07:48:01.155Z,103020.63
2018-12-30T07:50:31.622Z,103022.52
2018-12-30T07:53:04.068Z,103022.77
2018-12-30T07:55:34.836Z,103023.77
2018-12-30T07:58:05.489Z,103023.48
2018-12-30T08:00:40.449Z,103025.31
2018-12-30T08:03:12.575Z,103034.90
2018-12-30T08:05:44.568Z,103033.08
2018-12-30T08:08:16.802Z,103037.76
2018-12-30T08:10:47.159Z,103038.89
2018-12-30T08:13:17.508Z,103046.79
2018-12-30T08:15:52.797Z,103049.58
2018-12-30T08:18:23.217Z,103041.38
2018-12-30T08:20:56.547Z,103031.95
2018-12-30T08:23:26.867Z,103032.23
2018-12-30T08:25:57.647Z,103028.48
2018-12-30T08:28:34.987Z,103039.76
2018-12-30T08:31:03.435Z,103035.97
2018-12-30T08:33:33.999Z,103039.31
2018-12-30T08:36:07.396Z,103033.14
2018-12-30T08:38:36.663Z,103047.38
2018-12-30T08:41:24.429Z,103026.00
2018-12-30T08:43:43.391Z,103043.58
2018-12-30T08:46:14.651Z,103047.47
2018-12-30T08:48:54.068Z,103034.66
2018-12-30T08:51:30.545Z,103044.41
2018-12-30T08:54:06.085Z,103047.05
2018-12-30T08:56:37.942Z,103045.38
2018-12-30T08:59:08.280Z,103043.51
2018-12-30T09:01:44.034Z,103046.59
2018-12-30T09:04:14.657Z,103047.20
2018-12-30T09:06:46.767Z,103057.08
2018-12-30T09:09:17.225Z,103044.25
2018-12-30T09:11:47.714Z,103032.47
2018-12-30T09:14:25.346Z,103030.50
2018-12-30T09:16:55.994Z,103031.35
2018-12-30T09:19:30.311Z,103020.59
2018-12-30T09:22:01.120Z,103023.87
2018-12-30T09:24:31.571Z,103009.41
2018-12-30T09:27:03.973Z,103023.64
2018-12-30T09:29:36.014Z,103036.55
2018-12-30T09:32:06.691Z,103050.27
2018-12-30T09:34:39.719Z,103044.13
2018-12-30T09:37:10.275Z,103049.22
2018-12-30T09:39:41.004Z,103053.25
2018-12-30T09:42:11.643Z,103066.18
2018-12-30T09:44:43.175Z,103074.37
2018-12-30T09:47:13.514Z,103075.74
2018-12-30T09:49:43.893Z,103084.31
2018-12-30T09:52:15.470Z,103076.28
2018-12-30T09:54:46.274Z,103074.09
2018-12-30T09:57:18.008Z,103074.92
2018-12-30T09:59:48.792Z,103058.53
2018-12-30T10:02:20.353Z,103080.77
2018-12-30T10:04:52.451Z,103080.77
2018-12-30T10:07:24.311Z,103091.23
2018-12-30T10:09:54.832Z,103084.70
2018-12-30T10:12:29.282Z,103101.69
2018-12-30T10:15:08.906Z,103117.77
2018-12-30T10:17:33.014Z,103113.63
2018-12-30T10:20:05.013Z,103124.66
2018-12-30T10:22:38.005Z,103122.75
2018-12-30T10:25:13.202Z,103114.69
2018-12-30T10:27:44.122Z,103110.75
2018-12-30T10:30:14.971Z,103116.59
2018-12-30T10:32:46.929Z,103119.72
2018-12-30T10:35:17.630Z,103116.39
2018-12-30T10:37:53.649Z,103109.52
2018-12-30T10:40:26.479Z,103109.48
2018-12-30T10:42:57.231Z,103106.93
2018-12-30T10:45:30.752Z,103092.75
2018-12-30T10:48:04.561Z,103083.04
2018-12-30T10:50:44.781Z,103081.67
2018-12-30T10:53:15.495Z,103080.91
2018-12-30T10:55:46.028Z,103074.59
2018-12-30T10:58:18.341Z,103070.31
2018-12-30T11:00:48.667Z,103069.33
2018-12-30T11:03:28.982Z,103070.87
2018-12-30T11:08:47.337Z,103080.13
2018-12-30T11:11:05.117Z,103078.27
2018-12-30T11:13:35.773Z,103067.16
2018-12-30T11:16:06.243Z,103067.16
2018-12-30T11:18:40.154Z,103078.48
2018-12-30T11:21:10.480Z,103068.82
2018-12-30T11:26:32.411Z,103068.65
2018-12-30T11:29:10.849Z,103068.52
2018-12-30T11:31:39.861Z,103054.44
2018-12-30T11:34:12.417Z,103061.30
2018-12-30T11:36:42.788Z,103051.30
2018-12-30T11:39:14.411Z,103046.05
2018-12-30T11:41:45.364Z,103044.08
2018-12-30T11:44:16.088Z,103045.14
2018-12-30T11:46:46.619Z,103042.08
2018-12-30T11:49:16.999Z,103048.69
2018-12-30T11:51:47.400Z,103045.50
2018-12-30T11:54:18.004Z,103053.02
2018-12-30T11:56:49.427Z,103047.81
2018-12-30T11:59:23.616Z,103049.48
2018-12-30T12:01:55.490Z,103052.72
2018-12-30T12:04:25.909Z,103049.98
2018-12-30T12:06:57.620Z,103049.41
2018-12-30T12:09:27.992Z,103046.33
2018-12-30T12:12:01.752Z,103055.16
2018-12-30T12:14:32.461Z,103052.31
2018-12-30T12:17:03.919Z,103044.07
2018-12-30T12:19:35.682Z,103043.48
2018-12-30T12:22:06.056Z,103031.27
2018-12-30T12:24:36.825Z,103024.14
2018-12-30T12:27:08.815Z,103021.38
2018-12-30T12:29:39.202Z,103017.27
2018-12-30T12:32:17.294Z,103009.71
2018-12-30T12:34:47.965Z,103013.08
2018-12-30T12:37:20.077Z,103017.73
2018-12-30T12:39:50.802Z,103018.03
2018-12-30T12:42:24.765Z,103020.77
2018-12-30T12:44:55.317Z,103019.05
2018-12-30T12:47:25.848Z,103015.59
2018-12-30T12:49:58.068Z,103012.09
2018-12-30T12:52:28.388Z,103007.95
2018-12-30T12:54:59.092Z,103016.75
2018-12-30T12:57:31.299Z,103003.77
2018-12-30T13:00:01.951Z,103015.32
2018-12-30T13:02:41.436Z,103008.02
2018-12-30T13:05:12.541Z,103010.25
2018-12-30T13:07:44.847Z,102998.61
2018-12-30T13:10:18.367Z,103001.91
2018-12-30T13:12:49.141Z,103006.43
2018-12-30T13:15:19.503Z,103005.83
2018-12-30T13:17:50.008Z,103009.59
2018-12-30T13:20:20.586Z,102995.47
2018-12-30T13:22:56.686Z,103003.62
2018-12-30T13:25:23.771Z,103007.11
2018-12-30T13:27:54.487Z,103007.22
2018-12-30T13:30:25.010Z,103007.22
2018-12-30T13:32:58.176Z,103017.03
2018-12-30T13:35:30.809Z,103025.52
2018-12-30T13:38:03.311Z,103029.13
2018-12-30T13:40:35.126Z,103036.21
2018-12-30T13:43:05.877Z,103032.75
2018-12-30T13:45:45.203Z,103029.98
2018-12-30T13:48:17.538Z,103033.30
2018-12-30T13:50:47.890Z,103031.11
2018-12-30T13:53:20.546Z,103036.55
2018-12-30T13:55:51.133Z,103033.36
2018-12-30T13:58:21.834Z,103040.08
2018-12-30T14:00:56.387Z,103037.65
2018-12-30T14:03:26.628Z,103040.80
2018-12-30T14:05:57.543Z,103040.36
2018-12-30T14:08:29.559Z,103030.58
2018-12-30T14:10:59.939Z,103042.84
2018-12-30T14:13:30.278Z,103038.02
2018-12-30T14:16:00.755Z,103026.95
2018-12-30T14:18:31.431Z,103026.95
2018-12-30T14:21:01.838Z,103042.00
2018-12-30T14:23:35.131Z,103035.13
2018-12-30T14:26:08.718Z,103036.89
2018-12-30T14:28:39.244Z,103024.11
2018-12-30T14:31:13.085Z,103022.45
2018-12-30T14:33:54.509Z,103021.27
2018-12-30T14:36:23.532Z,103020.35
2018-12-30T14:38:54.067Z,103019.68
2018-12-30T14:41:26.816Z,103021.47
2018-12-30T14:43:58.655Z,103015.47
2018-12-30T14:46:34.668Z,103021.47
2018-12-30T14:49:01.383Z,103030.42
2018-12-30T14:51:32.350Z,103028.55
2018-12-30T14:54:03.106Z,103015.52
2018-12-30T14:56:35.721Z,103014.22
2018-12-30T14:59:06.393Z,103006.56
2018-12-30T15:01:38.416Z,103012.95
2018-12-30T15:04:10.748Z,103006.56
2018-12-30T15:06:43.643Z,103016.02
2018-12-30T15:09:16.443Z,103024.58
2018-12-30T15:11:53.009Z,103023.96
2018-12-30T15:14:24.041Z,103025.39
2018-12-30T15:17:03.542Z,103032.27
2018-12-30T15:19:32.650Z,103031.48
2018-12-30T15:22:07.559Z,103031.69
2018-12-30T15:24:37.096Z,103032.77
2018-12-30T15:27:07.416Z,103023.27
2018-12-30T15:29:37.759Z,103013.97
2018-12-30T15:32:09.665Z,103017.36
2018-12-30T15:34:40.824Z,103014.16
2018-12-30T15:37:14.622Z,103010.22
2018-12-30T15:39:52.521Z,103003.98
2018-12-30T15:42:23.076Z,103004.78
2018-12-30T15:45:00.752Z,103008.98
2018-12-30T15:47:31.133Z,103014.20
2018-12-30T15:50:02.706Z,103008.33
2018-12-30T15:52:36.921Z,103000.53
2018-12-30T15:55:07.430Z,102994.16
2018-12-30T15:57:51.908Z,102994.16
2018-12-30T16:00:13.647Z,102988.81
2018-12-30T16:02:45.845Z,102983.70
2018-12-30T16:05:18.635Z,102975.53
2018-12-30T16:07:48.978Z,102975.16
2018-12-30T16:10:25.824Z,102982.67
2018-12-30T16:12:53.153Z,102984.75
2018-12-30T16:15:23.786Z,102988.06
2018-12-30T16:17:54.131Z,102976.85
2018-12-30T16:20:25.969Z,102978.79
2018-12-30T16:22:56.644Z,102979.31
2018-12-30T16:25:27.621Z,102977.52
2018-12-30T16:28:02.407Z,102981.77
2018-12-30T16:30:34.397Z,102983.28
2018-12-30T16:33:04.884Z,102993.39
2018-12-30T16:35:36.555Z,102990.98
2018-12-30T16:38:07.086Z,103001.94
2018-12-30T16:40:39.511Z,103008.22
2018-12-30T16:43:09.881Z,102995.84
2018-12-30T16:45:40.246Z,103000.22
2018-12-30T16:48:11.173Z,102988.60
2018-12-30T16:50:41.664Z,102985.67
2018-12-30T16:53:12.016Z,102975.23
2018-12-30T16:55:42.455Z,102975.23
2018-12-30T16:58:15.951Z,102987.33
2018-12-30T17:00:48.572Z,102983.88
2018-12-30T17:03:20.294Z,102980.95
2018-12-30T17:05:52.411Z,102990.16
2018-12-30T17:08:23.094Z,103002.16
2018-12-30T17:10:56.468Z,102994.09
2018-12-30T17:13:27.081Z,102977.50
2018-12-30T17:15:57.476Z,102972.64
2018-12-30T17:18:29.942Z,102973.44
2018-12-30T17:21:00.467Z,102969.61
2018-12-30T17:23:32.779Z,102972.16
2018-12-30T17:26:03.307Z,102971.37
2018-12-30T17:28:34.290Z,102972.16
2018-12-30T17:31:05.701Z,102970.84
2018-12-30T17:33:36.397Z,102968.78
2018-12-30T17:36:12.676Z,102958.33
2018-12-30T17:38:44.866Z,102955.77
2018-12-30T17:41:15.240Z,102949.64
2018-12-30T17:43:54.565Z,102949.64
2018-12-30T17:46:25.016Z,102954.50
2018-12-30T17:49:02.609Z,102960.50
2018-12-30T17:51:34.553Z,102956.25
2018-12-30T17:54:05.546Z,102954.98
2018-12-30T17:56:36.174Z,102957.28
2018-12-30T17:59:06.820Z,102962.88
2018-12-30T18:01:37.207Z,102960.31
2018-12-30T18:04:08.047Z,102958.28
2018-12-30T18:06:39.066Z,102962.88
2018-12-30T18:09:09.618Z,102963.39
2018-12-30T18:11:40.083Z,102961.35
2018-12-30T18:14:37.089Z,102961.83
2018-12-30T18:16:46.380Z,102960.55
2018-12-30T18:19:17.094Z,102960.55
2018-12-30T18:21:48.525Z,102959.03
2018-12-30T18:24:19.174Z,102961.59
2018-12-30T18:26:55.875Z,102965.00
2018-12-30T18:29:27.818Z,102960.79
2018-12-30T18:31:58.361Z,102967.97
2018-12-30T18:34:28.999Z,102969.34
2018-12-30T18:36:59.321Z,102954.79
2018-12-30T18:39:32.672Z,102951.09
2018-12-30T18:42:05.702Z,102952.37
2018-12-30T18:44:38.031Z,102952.37
2018-12-30T18:47:12.626Z,102952.89
2018-12-30T18:49:43.306Z,102951.20
2018-12-30T18:52:13.673Z,102950.06
2018-12-30T18:54:44.334Z,102945.34
2018-12-30T18:57:14.979Z,102942.02
2018-12-30T19:02:23.256Z,102944.81
2018-12-30T19:05:04.344Z,102924.87
2018-12-30T19:07:31.614Z,102933.05
2018-12-30T19:10:02.268Z,102934.32
2018-12-30T19:12:33.199Z,102929.31
2018-12-30T19:15:04.222Z,102933.94
2018-12-30T19:17:50.800Z,102938.77
2018-12-30T19:20:21.460Z,102933.75
2018-12-30T19:22:56.421Z,102935.16
2018-12-30T19:25:27.304Z,102934.88
2018-12-30T19:28:07.872Z,102920.56
2018-12-30T19:30:38.398Z,102920.56
2018-12-30T19:33:11.669Z,102937.39
2018-12-30T19:35:48.320Z,102942.02
2018-12-30T19:38:18.768Z,102941.73
2018-12-30T19:41:00.079Z,102939.17
2018-12-30T19:43:32.876Z,102946.55
2018-12-30T19:46:05.574Z,102949.10
2018-12-30T19:48:36.313Z,102939.69
2018-12-30T19:51:11.187Z,102939.69
2018-12-30T19:53:41.541Z,102949.72
2018-12-30T19:56:11.989Z,102950.99
2018-12-30T19:58:42.619Z,102957.79
2018-12-30T20:01:13.102Z,102958.27
2018-12-30T20:03:58.388Z,102952.41
2018-12-30T20:06:20.254Z,102954.67
2018-12-30T20:08:50.968Z,102949.56
2018-12-30T20:11:26.931Z,102948.30
2018-12-30T20:13:58.914Z,102952.63
2018-12-30T20:16:29.304Z,102942.94
2018-12-30T20:19:01.703Z,102936.94
2018-12-30T20:21:32.633Z,102938.21
2018-12-30T20:24:06.076Z,102924.27
2018-12-30T20:26:36.418Z,102934.99
2018-12-30T20:29:07.922Z,102929.50
2018-12-30T20:31:41.895Z,102941.09
2018-12-30T20:34:12.598Z,102934.71
2018-12-30T20:36:42.939Z,102936.50
2018-12-30T20:39:18.103Z,102943.50
2018-12-30T20:41:48.512Z,102945.67
2018-12-30T20:44:19.260Z,102935.03
2018-12-30T20:46:51.645Z,102928.78
2018-12-30T20:49:23.514Z,102927.13
2018-12-30T20:51:54.001Z,102929.02
2018-12-30T20:54:24.728Z,102921.06
2018-12-30T20:56:55.220Z,102925.41
2018-12-30T20:59:29.118Z,102925.41
2018-12-30T21:01:59.825Z,102922.86
2018-12-30T21:04:32.514Z,102922.86
2018-12-30T21:07:05.290Z,102928.29
2018-12-30T21:09:36.312Z,102927.53
2018-12-30T21:12:15.642Z,102934.01
2018-12-30T21:14:46.125Z,102931.20
2018-12-30T21:17:16.489Z,102932.06
2018-12-30T21:19:48.346Z,102923.64
2018-12-30T21:22:19.964Z,102936.13
2018-12-30T21:24:51.528Z,102932.42
2018-12-30T21:34:35.958Z,102930.70
2018-12-30T21:37:06.324Z,102930.70
2018-12-30T21:39:39.356Z,102933.64
2018-12-30T21:42:09.730Z,102933.34
2018-12-30T21:44:45.393Z,102926.96
2018-12-30T21:47:17.575Z,102925.81
2018-12-30T21:49:48.246Z,102930.55
2018-12-30T21:52:29.367Z,102927.19
2018-12-30T21:54:56.522Z,102925.66
2018-12-30T21:57:26.853Z,102928.21
2018-12-30T22:00:06.706Z,102920.27
2018-12-30T22:02:37.082Z,102918.69
2018-12-30T22:05:10.790Z,102922.91
2018-12-30T22:07:43.226Z,102916.42
2018-12-30T22:10:25.005Z,102923.33
2018-12-30T22:12:55.367Z,102923.20
2018-12-30T22:15:26.020Z,102927.16
2018-12-30T22:17:56.670Z,102933.55
2018-12-30T22:20:27.302Z,102940.92
2018-12-30T22:23:10.884Z,102937.48
2018-12-30T22:25:42.270Z,102941.41
2018-12-30T22:28:26.633Z,102938.08
2018-12-30T22:30:57.132Z,102937.56
2018-12-30T22:33:34.630Z,102944.47
2018-12-30T22:36:06.247Z,102947.02
2018-12-30T22:38:36.692Z,102949.20
2018-12-30T22:41:07.025Z,102948.81
2018-12-30T22:43:39.198Z,102946.27
2018-12-30T22:46:10.219Z,102945.23
2018-12-30T22:49:00.874Z,102945.23
2018-12-30T22:51:29.442Z,102948.56
2018-12-30T22:53:59.907Z,102948.27
2018-12-30T22:56:30.357Z,102950.83
2018-12-30T22:59:03.246Z,102959.01
2018-12-30T23:01:39.110Z,102952.62
2018-12-30T23:04:13.759Z,102954.79
2018-12-30T23:06:44.250Z,102952.23
2018-12-30T23:09:14.740Z,102948.41
2018-12-30T23:11:48.023Z,102951.05
2018-12-30T23:14:20.212Z,102953.23
2018-12-30T23:16:50.862Z,102954.22
2018-12-30T23:19:24.278Z,102950.00
2018-12-30T23:21:54.616Z,102946.16
2018-12-30T23:24:25.330Z,102950.51
2018-12-30T23:27:00.490Z,102945.11
2018-12-30T23:29:31.539Z,102945.49
2018-12-30T23:32:01.933Z,102946.39
2018-12-30T23:34:32.537Z,102942.94
2018-12-30T23:37:03.198Z,102948.56
2018-12-30T23:39:37.338Z,102950.45
2018-12-30T23:42:09.310Z,102952.23
2018-12-30T23:44:39.885Z,102944.56
2018-12-30T23:47:10.284Z,102940.44
2018-12-30T23:49:49.735Z,102946.93
2018-12-30T23:52:20.112Z,102950.38
2018-12-30T23:55:05.039Z,102955.23
2018-12-30T23:57:35.606Z,102960.34
